sensor_id;sensor_type;location;lat;lon;timestamp;P1;durP1;ratioP1;P2;durP2;ratioP2
33268;SDS011;19640;50.944;5.260;2023-06-24T00:01:35;7.40;;;6.80;;
33268;SDS011;19640;50.944;5.260;2023-06-24T00:04:03;8.02;;;7.18;;
33268;SDS011;19640;50.944;5.260;2023-06-24T00:06:29;12.65;;;6.50;;
33268;SDS011;19640;50.944;5.260;2023-06-24T00:08:55;8.05;;;6.43;;
33268;SDS011;19640;50.944;5.260;2023-06-24T00:11:29;8.35;;;7.30;;
33268;SDS011;19640;50.944;5.260;2023-06-24T00:13:55;9.00;;;5.45;;
33268;SDS011;19640;50.944;5.260;2023-06-24T00:16:21;5.90;;;5.15;;
33268;SDS011;19640;50.944;5.260;2023-06-24T00:18:52;7.22;;;4.28;;
33268;SDS011;19640;50.944;5.260;2023-06-24T00:21:26;4.80;;;4.30;;
33268;SDS011;19640;50.944;5.260;2023-06-24T00:23:56;5.13;;;4.63;;
33268;SDS011;19640;50.944;5.260;2023-06-24T00:26:22;5.72;;;5.28;;
33268;SDS011;19640;50.944;5.260;2023-06-24T00:28:48;6.50;;;5.90;;
33268;SDS011;19640;50.944;5.260;2023-06-24T00:31:13;6.55;;;5.90;;
33268;SDS011;19640;50.944;5.260;2023-06-24T00:33:39;7.47;;;6.00;;
33268;SDS011;19640;50.944;5.260;2023-06-24T00:36:05;6.65;;;6.13;;
33268;SDS011;19640;50.944;5.260;2023-06-24T00:38:33;7.15;;;6.38;;
33268;SDS011;19640;50.944;5.260;2023-06-24T00:40:59;7.60;;;6.78;;
33268;SDS011;19640;50.944;5.260;2023-06-24T00:43:24;11.05;;;6.80;;
33268;SDS011;19640;50.944;5.260;2023-06-24T00:45:50;9.70;;;7.93;;
33268;SDS011;19640;50.944;5.260;2023-06-24T00:48:18;7.72;;;7.03;;
33268;SDS011;19640;50.944;5.260;2023-06-24T00:50:45;9.10;;;8.15;;
33268;SDS011;19640;50.944;5.260;2023-06-24T00:53:11;8.65;;;7.60;;
33268;SDS011;19640;50.944;5.260;2023-06-24T00:55:37;11.05;;;9.88;;
33268;SDS011;19640;50.944;5.260;2023-06-24T00:58:04;8.68;;;7.82;;
33268;SDS011;19640;50.944;5.260;2023-06-24T01:00:29;10.25;;;8.15;;
33268;SDS011;19640;50.944;5.260;2023-06-24T01:02:57;9.65;;;8.85;;
33268;SDS011;19640;50.944;5.260;2023-06-24T01:05:24;10.50;;;9.40;;
33268;SDS011;19640;50.944;5.260;2023-06-24T01:07:52;11.15;;;10.15;;
33268;SDS011;19640;50.944;5.260;2023-06-24T01:10:21;11.20;;;10.23;;
33268;SDS011;19640;50.944;5.260;2023-06-24T01:12:48;11.63;;;10.50;;
33268;SDS011;19640;50.944;5.260;2023-06-24T01:15:14;11.48;;;10.23;;
33268;SDS011;19640;50.944;5.260;2023-06-24T01:17:55;10.45;;;9.02;;
33268;SDS011;19640;50.944;5.260;2023-06-24T01:28:53;10.05;;;9.05;;
33268;SDS011;19640;50.944;5.260;2023-06-24T01:31:36;12.07;;;10.80;;
33268;SDS011;19640;50.944;5.260;2023-06-24T01:34:37;11.15;;;9.63;;
33268;SDS011;19640;50.944;5.260;2023-06-24T01:37:27;13.90;;;9.52;;
33268;SDS011;19640;50.944;5.260;2023-06-24T01:40:00;10.82;;;7.75;;
33268;SDS011;19640;50.944;5.260;2023-06-24T01:42:42;9.95;;;8.95;;
33268;SDS011;19640;50.944;5.260;2023-06-24T01:45:12;9.15;;;8.32;;
33268;SDS011;19640;50.944;5.260;2023-06-24T01:47:40;8.85;;;8.05;;
33268;SDS011;19640;50.944;5.260;2023-06-24T01:50:10;11.60;;;8.88;;
33268;SDS011;19640;50.944;5.260;2023-06-24T01:52:37;11.95;;;8.43;;
33268;SDS011;19640;50.944;5.260;2023-06-24T01:55:06;15.60;;;8.32;;
33268;SDS011;19640;50.944;5.260;2023-06-24T01:57:34;9.38;;;8.48;;
33268;SDS011;19640;50.944;5.260;2023-06-24T02:00:02;13.07;;;7.80;;
33268;SDS011;19640;50.944;5.260;2023-06-24T02:02:33;8.57;;;7.68;;
33268;SDS011;19640;50.944;5.260;2023-06-24T02:05:00;14.50;;;8.98;;
33268;SDS011;19640;50.944;5.260;2023-06-24T02:07:29;10.70;;;7.78;;
33268;SDS011;19640;50.944;5.260;2023-06-24T02:09:56;9.18;;;7.97;;
33268;SDS011;19640;50.944;5.260;2023-06-24T02:12:26;12.45;;;8.13;;
33268;SDS011;19640;50.944;5.260;2023-06-24T02:14:54;12.60;;;6.75;;
33268;SDS011;19640;50.944;5.260;2023-06-24T02:17:20;10.50;;;6.60;;
33268;SDS011;19640;50.944;5.260;2023-06-24T02:19:49;10.95;;;7.70;;
33268;SDS011;19640;50.944;5.260;2023-06-24T02:22:16;9.77;;;7.18;;
33268;SDS011;19640;50.944;5.260;2023-06-24T02:24:43;8.57;;;7.72;;
33268;SDS011;19640;50.944;5.260;2023-06-24T02:27:10;16.00;;;8.02;;
33268;SDS011;19640;50.944;5.260;2023-06-24T02:29:37;8.23;;;7.15;;
33268;SDS011;19640;50.944;5.260;2023-06-24T02:32:05;9.82;;;6.90;;
33268;SDS011;19640;50.944;5.260;2023-06-24T02:34:31;11.38;;;8.32;;
33268;SDS011;19640;50.944;5.260;2023-06-24T02:36:57;9.40;;;8.45;;
33268;SDS011;19640;50.944;5.260;2023-06-24T02:39:23;12.90;;;8.73;;
33268;SDS011;19640;50.944;5.260;2023-06-24T02:41:49;10.30;;;9.32;;
33268;SDS011;19640;50.944;5.260;2023-06-24T02:44:15;10.25;;;9.23;;
33268;SDS011;19640;50.944;5.260;2023-06-24T02:46:42;12.70;;;9.65;;
33268;SDS011;19640;50.944;5.260;2023-06-24T02:49:09;15.60;;;9.68;;
33268;SDS011;19640;50.944;5.260;2023-06-24T02:51:38;12.90;;;9.45;;
33268;SDS011;19640;50.944;5.260;2023-06-24T02:54:04;13.10;;;9.82;;
33268;SDS011;19640;50.944;5.260;2023-06-24T02:56:31;12.05;;;8.93;;
33268;SDS011;19640;50.944;5.260;2023-06-24T02:58:57;12.43;;;10.77;;
33268;SDS011;19640;50.944;5.260;2023-06-24T03:01:23;12.82;;;11.52;;
33268;SDS011;19640;50.944;5.260;2023-06-24T03:03:55;16.30;;;12.05;;
33268;SDS011;19640;50.944;5.260;2023-06-24T03:06:22;12.68;;;10.75;;
33268;SDS011;19640;50.944;5.260;2023-06-24T03:08:49;11.63;;;10.40;;
33268;SDS011;19640;50.944;5.260;2023-06-24T03:11:15;16.60;;;11.75;;
33268;SDS011;19640;50.944;5.260;2023-06-24T03:13:41;13.38;;;11.98;;
33268;SDS011;19640;50.944;5.260;2023-06-24T03:16:08;18.80;;;11.75;;
33268;SDS011;19640;50.944;5.260;2023-06-24T03:18:41;12.95;;;11.05;;
33268;SDS011;19640;50.944;5.260;2023-06-24T03:21:07;9.57;;;8.10;;
33268;SDS011;19640;50.944;5.260;2023-06-24T03:23:33;9.48;;;8.48;;
33268;SDS011;19640;50.944;5.260;2023-06-24T03:25:59;11.35;;;10.25;;
33268;SDS011;19640;50.944;5.260;2023-06-24T03:28:25;6.90;;;6.20;;
33268;SDS011;19640;50.944;5.260;2023-06-24T03:30:51;11.88;;;10.68;;
33268;SDS011;19640;50.944;5.260;2023-06-24T03:33:17;10.55;;;9.52;;
33268;SDS011;19640;50.944;5.260;2023-06-24T03:35:43;10.88;;;9.88;;
33268;SDS011;19640;50.944;5.260;2023-06-24T03:38:09;9.25;;;8.45;;
33268;SDS011;19640;50.944;5.260;2023-06-24T03:40:35;6.15;;;5.55;;
33268;SDS011;19640;50.944;5.260;2023-06-24T03:43:00;9.20;;;6.40;;
33268;SDS011;19640;50.944;5.260;2023-06-24T03:45:26;7.82;;;6.97;;
33268;SDS011;19640;50.944;5.260;2023-06-24T03:47:51;11.65;;;5.22;;
33268;SDS011;19640;50.944;5.260;2023-06-24T03:50:17;8.02;;;6.10;;
33268;SDS011;19640;50.944;5.260;2023-06-24T03:52:43;7.25;;;6.55;;
33268;SDS011;19640;50.944;5.260;2023-06-24T03:55:09;9.52;;;6.40;;
33268;SDS011;19640;50.944;5.260;2023-06-24T03:57:36;6.85;;;6.18;;
33268;SDS011;19640;50.944;5.260;2023-06-24T04:00:02;12.65;;;6.20;;
33268;SDS011;19640;50.944;5.260;2023-06-24T04:02:37;6.72;;;5.47;;
33268;SDS011;19640;50.944;5.260;2023-06-24T04:05:03;6.43;;;5.85;;
33268;SDS011;19640;50.944;5.260;2023-06-24T04:07:31;7.88;;;7.13;;
33268;SDS011;19640;50.944;5.260;2023-06-24T04:09:57;7.78;;;5.72;;
33268;SDS011;19640;50.944;5.260;2023-06-24T04:12:23;7.72;;;6.22;;
33268;SDS011;19640;50.944;5.260;2023-06-24T04:14:49;8.23;;;5.50;;
33268;SDS011;19640;50.944;5.260;2023-06-24T04:17:15;10.40;;;9.50;;
33268;SDS011;19640;50.944;5.260;2023-06-24T04:19:41;8.63;;;7.75;;
33268;SDS011;19640;50.944;5.260;2023-06-24T04:22:07;11.60;;;6.97;;
33268;SDS011;19640;50.944;5.260;2023-06-24T04:24:33;7.50;;;6.80;;
33268;SDS011;19640;50.944;5.260;2023-06-24T04:26:58;8.02;;;7.28;;
33268;SDS011;19640;50.944;5.260;2023-06-24T04:29:24;9.82;;;6.30;;
33268;SDS011;19640;50.944;5.260;2023-06-24T04:31:49;11.70;;;6.72;;
33268;SDS011;19640;50.944;5.260;2023-06-24T04:34:15;11.18;;;9.10;;
33268;SDS011;19640;50.944;5.260;2023-06-24T04:36:41;12.93;;;10.20;;
33268;SDS011;19640;50.944;5.260;2023-06-24T04:39:07;12.02;;;10.75;;
33268;SDS011;19640;50.944;5.260;2023-06-24T04:41:33;11.48;;;10.32;;
33268;SDS011;19640;50.944;5.260;2023-06-24T04:43:58;14.75;;;11.00;;
33268;SDS011;19640;50.944;5.260;2023-06-24T04:46:24;12.10;;;10.70;;
33268;SDS011;19640;50.944;5.260;2023-06-24T04:48:50;12.18;;;9.98;;
33268;SDS011;19640;50.944;5.260;2023-06-24T04:51:16;11.50;;;10.40;;
33268;SDS011;19640;50.944;5.260;2023-06-24T04:53:42;14.73;;;10.55;;
33268;SDS011;19640;50.944;5.260;2023-06-24T04:56:07;10.23;;;9.15;;
33268;SDS011;19640;50.944;5.260;2023-06-24T04:58:33;11.50;;;9.77;;
33268;SDS011;19640;50.944;5.260;2023-06-24T05:00:59;10.48;;;9.38;;
33268;SDS011;19640;50.944;5.260;2023-06-24T05:03:26;10.23;;;9.23;;
33268;SDS011;19640;50.944;5.260;2023-06-24T05:05:51;12.70;;;8.82;;
33268;SDS011;19640;50.944;5.260;2023-06-24T05:08:18;11.15;;;8.68;;
33268;SDS011;19640;50.944;5.260;2023-06-24T05:10:43;9.70;;;7.82;;
33268;SDS011;19640;50.944;5.260;2023-06-24T05:13:09;10.57;;;7.65;;
33268;SDS011;19640;50.944;5.260;2023-06-24T05:15:36;8.80;;;7.93;;
33268;SDS011;19640;50.944;5.260;2023-06-24T05:18:01;9.48;;;7.55;;
33268;SDS011;19640;50.944;5.260;2023-06-24T05:20:27;11.65;;;7.90;;
33268;SDS011;19640;50.944;5.260;2023-06-24T05:22:53;10.57;;;6.93;;
33268;SDS011;19640;50.944;5.260;2023-06-24T05:25:19;8.25;;;6.95;;
33268;SDS011;19640;50.944;5.260;2023-06-24T05:27:45;7.15;;;5.97;;
33268;SDS011;19640;50.944;5.260;2023-06-24T05:30:10;8.27;;;6.93;;
33268;SDS011;19640;50.944;5.260;2023-06-24T05:32:38;9.90;;;5.63;;
33268;SDS011;19640;50.944;5.260;2023-06-24T05:35:04;9.23;;;6.32;;
33268;SDS011;19640;50.944;5.260;2023-06-24T05:37:30;6.50;;;5.90;;
33268;SDS011;19640;50.944;5.260;2023-06-24T05:39:55;7.15;;;6.05;;
33268;SDS011;19640;50.944;5.260;2023-06-24T05:42:22;10.40;;;6.30;;
33268;SDS011;19640;50.944;5.260;2023-06-24T05:44:49;17.27;;;5.95;;
33268;SDS011;19640;50.944;5.260;2023-06-24T05:47:15;7.43;;;5.60;;
33268;SDS011;19640;50.944;5.260;2023-06-24T05:49:41;11.65;;;5.85;;
33268;SDS011;19640;50.944;5.260;2023-06-24T05:52:06;7.25;;;5.22;;
33268;SDS011;19640;50.944;5.260;2023-06-24T05:54:33;6.57;;;5.82;;
33268;SDS011;19640;50.944;5.260;2023-06-24T05:56:59;6.53;;;5.13;;
33268;SDS011;19640;50.944;5.260;2023-06-24T05:59:24;5.50;;;4.82;;
33268;SDS011;19640;50.944;5.260;2023-06-24T06:01:50;7.05;;;4.93;;
33268;SDS011;19640;50.944;5.260;2023-06-24T06:04:16;10.40;;;5.05;;
33268;SDS011;19640;50.944;5.260;2023-06-24T06:06:41;5.85;;;4.43;;
33268;SDS011;19640;50.944;5.260;2023-06-24T06:09:07;4.95;;;4.32;;
33268;SDS011;19640;50.944;5.260;2023-06-24T06:11:33;8.95;;;5.00;;
33268;SDS011;19640;50.944;5.260;2023-06-24T06:13:58;6.15;;;3.97;;
33268;SDS011;19640;50.944;5.260;2023-06-24T06:16:24;5.63;;;4.50;;
33268;SDS011;19640;50.944;5.260;2023-06-24T06:18:50;6.13;;;4.63;;
33268;SDS011;19640;50.944;5.260;2023-06-24T06:21:16;5.00;;;4.30;;
33268;SDS011;19640;50.944;5.260;2023-06-24T06:23:42;5.97;;;4.43;;
33268;SDS011;19640;50.944;5.260;2023-06-24T06:26:07;7.45;;;4.22;;
33268;SDS011;19640;50.944;5.260;2023-06-24T06:28:33;4.40;;;3.55;;
33268;SDS011;19640;50.944;5.260;2023-06-24T06:30:59;7.55;;;3.83;;
33268;SDS011;19640;50.944;5.260;2023-06-24T06:33:25;5.85;;;3.20;;
33268;SDS011;19640;50.944;5.260;2023-06-24T06:35:50;3.78;;;3.30;;
33268;SDS011;19640;50.944;5.260;2023-06-24T06:38:16;3.92;;;2.88;;
33268;SDS011;19640;50.944;5.260;2023-06-24T06:40:42;3.03;;;2.53;;
33268;SDS011;19640;50.944;5.260;2023-06-24T06:43:07;3.55;;;2.78;;
33268;SDS011;19640;50.944;5.260;2023-06-24T06:45:33;5.38;;;2.95;;
33268;SDS011;19640;50.944;5.260;2023-06-24T06:47:58;8.10;;;2.92;;
33268;SDS011;19640;50.944;5.260;2023-06-24T06:50:24;2.90;;;2.60;;
33268;SDS011;19640;50.944;5.260;2023-06-24T06:52:50;2.50;;;2.30;;
33268;SDS011;19640;50.944;5.260;2023-06-24T06:55:16;9.10;;;2.85;;
33268;SDS011;19640;50.944;5.260;2023-06-24T06:57:42;3.70;;;2.08;;
33268;SDS011;19640;50.944;5.260;2023-06-24T07:00:08;4.00;;;2.10;;
33268;SDS011;19640;50.944;5.260;2023-06-24T07:02:34;3.00;;;2.60;;
33268;SDS011;19640;50.944;5.260;2023-06-24T07:04:59;4.32;;;2.60;;
33268;SDS011;19640;50.944;5.260;2023-06-24T07:07:25;2.20;;;1.90;;
33268;SDS011;19640;50.944;5.260;2023-06-24T07:09:51;3.50;;;2.22;;
33268;SDS011;19640;50.944;5.260;2023-06-24T07:12:17;4.35;;;2.33;;
33268;SDS011;19640;50.944;5.260;2023-06-24T07:14:43;3.15;;;2.33;;
33268;SDS011;19640;50.944;5.260;2023-06-24T07:17:09;3.88;;;2.28;;
33268;SDS011;19640;50.944;5.260;2023-06-24T07:19:34;3.53;;;1.90;;
33268;SDS011;19640;50.944;5.260;2023-06-24T07:22:00;2.67;;;2.00;;
33268;SDS011;19640;50.944;5.260;2023-06-24T07:24:26;3.70;;;2.30;;
33268;SDS011;19640;50.944;5.260;2023-06-24T07:26:51;4.05;;;2.17;;
33268;SDS011;19640;50.944;5.260;2023-06-24T07:29:17;3.58;;;2.28;;
33268;SDS011;19640;50.944;5.260;2023-06-24T07:31:43;6.13;;;2.53;;
33268;SDS011;19640;50.944;5.260;2023-06-24T07:34:08;2.13;;;1.60;;
33268;SDS011;19640;50.944;5.260;2023-06-24T07:36:34;3.28;;;1.70;;
33268;SDS011;19640;50.944;5.260;2023-06-24T07:39:00;2.55;;;2.03;;
33268;SDS011;19640;50.944;5.260;2023-06-24T07:41:25;4.15;;;2.25;;
33268;SDS011;19640;50.944;5.260;2023-06-24T07:43:51;2.35;;;1.27;;
33268;SDS011;19640;50.944;5.260;2023-06-24T07:46:17;5.10;;;1.60;;
33268;SDS011;19640;50.944;5.260;2023-06-24T07:48:43;1.90;;;1.70;;
33268;SDS011;19640;50.944;5.260;2023-06-24T07:51:09;4.22;;;1.88;;
33268;SDS011;19640;50.944;5.260;2023-06-24T07:53:34;7.53;;;2.38;;
33268;SDS011;19640;50.944;5.260;2023-06-24T07:56:00;2.42;;;1.70;;
33268;SDS011;19640;50.944;5.260;2023-06-24T07:58:25;2.38;;;1.88;;
33268;SDS011;19640;50.944;5.260;2023-06-24T08:00:51;2.50;;;1.73;;
33268;SDS011;19640;50.944;5.260;2023-06-24T08:03:17;1.50;;;1.00;;
33268;SDS011;19640;50.944;5.260;2023-06-24T08:05:43;4.22;;;1.52;;
33268;SDS011;19640;50.944;5.260;2023-06-24T08:08:08;1.73;;;1.63;;
33268;SDS011;19640;50.944;5.260;2023-06-24T08:10:34;2.17;;;1.25;;
33268;SDS011;19640;50.944;5.260;2023-06-24T08:13:00;2.45;;;1.65;;
33268;SDS011;19640;50.944;5.260;2023-06-24T08:15:26;2.95;;;1.40;;
33268;SDS011;19640;50.944;5.260;2023-06-24T08:17:52;2.83;;;1.45;;
33268;SDS011;19640;50.944;5.260;2023-06-24T08:20:18;2.53;;;1.20;;
33268;SDS011;19640;50.944;5.260;2023-06-24T08:22:47;3.78;;;1.42;;
33268;SDS011;19640;50.944;5.260;2023-06-24T08:25:13;2.50;;;1.55;;
33268;SDS011;19640;50.944;5.260;2023-06-24T08:27:39;1.92;;;1.60;;
33268;SDS011;19640;50.944;5.260;2023-06-24T08:30:06;2.35;;;1.40;;
33268;SDS011;19640;50.944;5.260;2023-06-24T08:32:32;1.83;;;1.40;;
33268;SDS011;19640;50.944;5.260;2023-06-24T08:34:58;2.42;;;1.73;;
33268;SDS011;19640;50.944;5.260;2023-06-24T08:37:24;2.55;;;1.40;;
33268;SDS011;19640;50.944;5.260;2023-06-24T08:39:49;4.05;;;1.60;;
33268;SDS011;19640;50.944;5.260;2023-06-24T08:42:15;3.38;;;1.67;;
33268;SDS011;19640;50.944;5.260;2023-06-24T08:44:41;1.65;;;1.45;;
33268;SDS011;19640;50.944;5.260;2023-06-24T08:47:06;3.78;;;1.15;;
33268;SDS011;19640;50.944;5.260;2023-06-24T08:49:32;3.83;;;1.40;;
33268;SDS011;19640;50.944;5.260;2023-06-24T08:52:04;1.80;;;1.23;;
33268;SDS011;19640;50.944;5.260;2023-06-24T08:54:41;1.52;;;1.00;;
33268;SDS011;19640;50.944;5.260;2023-06-24T08:57:10;1.13;;;0.95;;
33268;SDS011;19640;50.944;5.260;2023-06-24T08:59:39;2.65;;;1.02;;
33268;SDS011;19640;50.944;5.260;2023-06-24T09:02:06;2.60;;;1.35;;
33268;SDS011;19640;50.944;5.260;2023-06-24T09:04:31;1.77;;;1.10;;
33268;SDS011;19640;50.944;5.260;2023-06-24T09:06:57;5.05;;;1.25;;
33268;SDS011;19640;50.944;5.260;2023-06-24T09:09:23;2.70;;;1.20;;
33268;SDS011;19640;50.944;5.260;2023-06-24T09:11:56;1.58;;;1.48;;
33268;SDS011;19640;50.944;5.260;2023-06-24T09:14:27;1.80;;;1.35;;
33268;SDS011;19640;50.944;5.260;2023-06-24T09:16:55;3.30;;;1.42;;
33268;SDS011;19640;50.944;5.260;2023-06-24T09:19:23;2.20;;;1.50;;
33268;SDS011;19640;50.944;5.260;2023-06-24T09:21:50;2.17;;;1.52;;
33268;SDS011;19640;50.944;5.260;2023-06-24T09:24:29;2.10;;;1.38;;
33268;SDS011;19640;50.944;5.260;2023-06-24T09:26:56;2.90;;;1.52;;
33268;SDS011;19640;50.944;5.260;2023-06-24T09:29:28;2.55;;;1.50;;
33268;SDS011;19640;50.944;5.260;2023-06-24T09:31:57;1.60;;;1.20;;
33268;SDS011;19640;50.944;5.260;2023-06-24T09:34:25;1.70;;;1.42;;
33268;SDS011;19640;50.944;5.260;2023-06-24T09:36:52;2.88;;;1.85;;
33268;SDS011;19640;50.944;5.260;2023-06-24T09:39:19;2.47;;;1.88;;
33268;SDS011;19640;50.944;5.260;2023-06-24T09:41:55;2.28;;;1.55;;
33268;SDS011;19640;50.944;5.260;2023-06-24T09:44:26;1.98;;;1.77;;
33268;SDS011;19640;50.944;5.260;2023-06-24T09:46:52;2.90;;;1.50;;
33268;SDS011;19640;50.944;5.260;2023-06-24T09:49:18;2.33;;;1.50;;
33268;SDS011;19640;50.944;5.260;2023-06-24T09:51:45;1.90;;;1.70;;
33268;SDS011;19640;50.944;5.260;2023-06-24T09:54:12;2.22;;;1.88;;
33268;SDS011;19640;50.944;5.260;2023-06-24T09:56:40;2.13;;;1.42;;
33268;SDS011;19640;50.944;5.260;2023-06-24T09:59:17;2.10;;;1.52;;
33268;SDS011;19640;50.944;5.260;2023-06-24T10:01:44;2.13;;;1.73;;
33268;SDS011;19640;50.944;5.260;2023-06-24T10:04:15;3.38;;;1.80;;
33268;SDS011;19640;50.944;5.260;2023-06-24T10:06:43;2.40;;;1.65;;
33268;SDS011;19640;50.944;5.260;2023-06-24T10:09:09;2.60;;;1.58;;
33268;SDS011;19640;50.944;5.260;2023-06-24T10:11:37;3.22;;;1.75;;
33268;SDS011;19640;50.944;5.260;2023-06-24T10:14:03;2.10;;;1.58;;
33268;SDS011;19640;50.944;5.260;2023-06-24T10:16:28;3.50;;;1.77;;
33268;SDS011;19640;50.944;5.260;2023-06-24T10:18:59;3.95;;;1.40;;
33268;SDS011;19640;50.944;5.260;2023-06-24T10:21:50;1.77;;;1.45;;
33268;SDS011;19640;50.944;5.260;2023-06-24T10:24:32;2.17;;;1.60;;
33268;SDS011;19640;50.944;5.260;2023-06-24T10:27:02;3.40;;;1.60;;
33268;SDS011;19640;50.944;5.260;2023-06-24T10:29:34;1.95;;;1.40;;
33268;SDS011;19640;50.944;5.260;2023-06-24T10:32:07;1.40;;;1.10;;
33268;SDS011;19640;50.944;5.260;2023-06-24T10:34:38;2.70;;;1.30;;
33268;SDS011;19640;50.944;5.260;2023-06-24T10:42:26;1.80;;;1.58;;
33268;SDS011;19640;50.944;5.260;2023-06-24T10:44:57;1.58;;;1.25;;
33268;SDS011;19640;50.944;5.260;2023-06-24T10:47:23;1.67;;;1.30;;
33268;SDS011;19640;50.944;5.260;2023-06-24T10:49:50;1.92;;;1.20;;
33268;SDS011;19640;50.944;5.260;2023-06-24T10:52:19;1.52;;;1.42;;
33268;SDS011;19640;50.944;5.260;2023-06-24T10:54:46;2.10;;;1.20;;
33268;SDS011;19640;50.944;5.260;2023-06-24T10:57:13;2.72;;;1.40;;
33268;SDS011;19640;50.944;5.260;2023-06-24T10:59:39;1.75;;;1.30;;
33268;SDS011;19640;50.944;5.260;2023-06-24T11:02:09;2.55;;;1.33;;
33268;SDS011;19640;50.944;5.260;2023-06-24T11:04:48;1.95;;;1.48;;
33268;SDS011;19640;50.944;5.260;2023-06-24T11:07:19;1.50;;;1.08;;
33268;SDS011;19640;50.944;5.260;2023-06-24T11:09:49;7.38;;;1.55;;
33268;SDS011;19640;50.944;5.260;2023-06-24T11:12:16;1.30;;;1.10;;
33268;SDS011;19640;50.944;5.260;2023-06-24T11:14:42;1.33;;;1.20;;
33268;SDS011;19640;50.944;5.260;2023-06-24T11:17:08;1.77;;;1.20;;
33268;SDS011;19640;50.944;5.260;2023-06-24T11:19:34;3.30;;;1.52;;
33268;SDS011;19640;50.944;5.260;2023-06-24T11:22:04;1.40;;;1.10;;
33268;SDS011;19640;50.944;5.260;2023-06-24T11:24:31;1.65;;;1.40;;
33268;SDS011;19640;50.944;5.260;2023-06-24T11:26:57;2.63;;;1.23;;
33268;SDS011;19640;50.944;5.260;2023-06-24T11:29:23;2.17;;;1.50;;
33268;SDS011;19640;50.944;5.260;2023-06-24T11:31:49;3.33;;;1.30;;
33268;SDS011;19640;50.944;5.260;2023-06-24T11:34:15;1.65;;;1.08;;
33268;SDS011;19640;50.944;5.260;2023-06-24T11:36:42;2.00;;;1.23;;
33268;SDS011;19640;50.944;5.260;2023-06-24T11:39:07;1.50;;;1.40;;
33268;SDS011;19640;50.944;5.260;2023-06-24T11:41:33;2.58;;;1.30;;
33268;SDS011;19640;50.944;5.260;2023-06-24T11:43:59;1.50;;;1.38;;
33268;SDS011;19640;50.944;5.260;2023-06-24T11:46:25;1.50;;;1.40;;
33268;SDS011;19640;50.944;5.260;2023-06-24T11:49:08;2.13;;;1.30;;
33268;SDS011;19640;50.944;5.260;2023-06-24T11:51:34;1.45;;;1.15;;
33268;SDS011;19640;50.944;5.260;2023-06-24T11:54:02;1.38;;;1.20;;
33268;SDS011;19640;50.944;5.260;2023-06-24T11:56:37;1.55;;;1.13;;
33268;SDS011;19640;50.944;5.260;2023-06-24T11:59:14;1.50;;;1.05;;
33268;SDS011;19640;50.944;5.260;2023-06-24T12:01:44;2.25;;;1.65;;
33268;SDS011;19640;50.944;5.260;2023-06-24T12:04:14;1.67;;;1.25;;
33268;SDS011;19640;50.944;5.260;2023-06-24T12:06:40;2.28;;;1.50;;
33268;SDS011;19640;50.944;5.260;2023-06-24T12:09:07;1.58;;;1.20;;
33268;SDS011;19640;50.944;5.260;2023-06-24T12:11:33;2.75;;;1.33;;
33268;SDS011;19640;50.944;5.260;2023-06-24T12:13:59;1.35;;;1.25;;
33268;SDS011;19640;50.944;5.260;2023-06-24T12:16:24;2.42;;;1.27;;
33268;SDS011;19640;50.944;5.260;2023-06-24T12:18:51;3.05;;;1.25;;
33268;SDS011;19640;50.944;5.260;2023-06-24T12:21:17;1.20;;;1.10;;
33268;SDS011;19640;50.944;5.260;2023-06-24T12:23:43;1.23;;;0.88;;
33268;SDS011;19640;50.944;5.260;2023-06-24T12:26:10;3.25;;;1.30;;
33268;SDS011;19640;50.944;5.260;2023-06-24T12:28:36;2.58;;;1.20;;
33268;SDS011;19640;50.944;5.260;2023-06-24T12:31:01;1.67;;;1.30;;
33268;SDS011;19640;50.944;5.260;2023-06-24T12:33:27;5.35;;;1.38;;
33268;SDS011;19640;50.944;5.260;2023-06-24T12:35:53;6.72;;;1.50;;
33268;SDS011;19640;50.944;5.260;2023-06-24T12:38:19;1.85;;;0.85;;
33268;SDS011;19640;50.944;5.260;2023-06-24T12:40:45;2.47;;;1.02;;
33268;SDS011;19640;50.944;5.260;2023-06-24T12:43:11;1.80;;;1.10;;
33268;SDS011;19640;50.944;5.260;2023-06-24T12:45:37;2.30;;;1.00;;
33268;SDS011;19640;50.944;5.260;2023-06-24T12:48:03;1.05;;;0.75;;
33268;SDS011;19640;50.944;5.260;2023-06-24T12:50:29;1.65;;;1.00;;
33268;SDS011;19640;50.944;5.260;2023-06-24T12:52:58;2.45;;;0.93;;
33268;SDS011;19640;50.944;5.260;2023-06-24T12:55:23;1.30;;;1.10;;
33268;SDS011;19640;50.944;5.260;2023-06-24T12:57:49;1.13;;;0.90;;
33268;SDS011;19640;50.944;5.260;2023-06-24T13:00:15;1.25;;;0.98;;
33268;SDS011;19640;50.944;5.260;2023-06-24T13:02:45;1.30;;;1.10;;
33268;SDS011;19640;50.944;5.260;2023-06-24T13:05:11;2.55;;;1.05;;
33268;SDS011;19640;50.944;5.260;2023-06-24T13:07:36;1.00;;;0.90;;
33268;SDS011;19640;50.944;5.260;2023-06-24T13:10:02;1.85;;;1.17;;
33268;SDS011;19640;50.944;5.260;2023-06-24T13:12:31;1.08;;;0.85;;
33268;SDS011;19640;50.944;5.260;2023-06-24T13:14:57;1.10;;;0.93;;
33268;SDS011;19640;50.944;5.260;2023-06-24T13:17:23;1.00;;;0.90;;
33268;SDS011;19640;50.944;5.260;2023-06-24T13:19:49;1.02;;;0.93;;
33268;SDS011;19640;50.944;5.260;2023-06-24T13:22:15;4.20;;;1.02;;
33268;SDS011;19640;50.944;5.260;2023-06-24T13:24:41;4.80;;;1.38;;
33268;SDS011;19640;50.944;5.260;2023-06-24T13:27:07;1.35;;;1.05;;
33268;SDS011;19640;50.944;5.260;2023-06-24T13:29:32;0.93;;;0.75;;
33268;SDS011;19640;50.944;5.260;2023-06-24T13:31:58;1.00;;;0.90;;
33268;SDS011;19640;50.944;5.260;2023-06-24T13:34:24;1.95;;;1.02;;
33268;SDS011;19640;50.944;5.260;2023-06-24T13:36:50;1.95;;;1.17;;
33268;SDS011;19640;50.944;5.260;2023-06-24T13:39:16;1.92;;;0.95;;
33268;SDS011;19640;50.944;5.260;2023-06-24T13:41:47;2.75;;;0.90;;
33268;SDS011;19640;50.944;5.260;2023-06-24T13:44:13;1.10;;;1.00;;
33268;SDS011;19640;50.944;5.260;2023-06-24T13:46:38;1.90;;;0.95;;
33268;SDS011;19640;50.944;5.260;2023-06-24T13:49:04;1.15;;;1.05;;
33268;SDS011;19640;50.944;5.260;2023-06-24T13:51:30;2.83;;;0.80;;
33268;SDS011;19640;50.944;5.260;2023-06-24T13:53:56;1.20;;;1.00;;
33268;SDS011;19640;50.944;5.260;2023-06-24T13:56:22;1.30;;;0.90;;
33268;SDS011;19640;50.944;5.260;2023-06-24T13:58:49;1.35;;;1.05;;
33268;SDS011;19640;50.944;5.260;2023-06-24T14:01:16;2.40;;;0.98;;
33268;SDS011;19640;50.944;5.260;2023-06-24T14:03:42;1.15;;;1.00;;
33268;SDS011;19640;50.944;5.260;2023-06-24T14:06:09;1.80;;;1.17;;
33268;SDS011;19640;50.944;5.260;2023-06-24T14:08:35;2.85;;;1.13;;
33268;SDS011;19640;50.944;5.260;2023-06-24T14:11:01;1.35;;;1.15;;
33268;SDS011;19640;50.944;5.260;2023-06-24T14:13:27;1.10;;;0.90;;
33268;SDS011;19640;50.944;5.260;2023-06-24T14:15:54;2.30;;;0.95;;
33268;SDS011;19640;50.944;5.260;2023-06-24T14:18:20;0.90;;;0.80;;
33268;SDS011;19640;50.944;5.260;2023-06-24T14:20:46;3.13;;;1.10;;
33268;SDS011;19640;50.944;5.260;2023-06-24T14:23:11;1.40;;;1.00;;
33268;SDS011;19640;50.944;5.260;2023-06-24T14:25:37;3.90;;;1.25;;
33268;SDS011;19640;50.944;5.260;2023-06-24T14:28:04;1.40;;;1.10;;
33268;SDS011;19640;50.944;5.260;2023-06-24T14:30:30;1.25;;;0.90;;
33268;SDS011;19640;50.944;5.260;2023-06-24T14:32:56;1.83;;;0.98;;
33268;SDS011;19640;50.944;5.260;2023-06-24T14:35:22;1.75;;;0.82;;
33268;SDS011;19640;50.944;5.260;2023-06-24T14:37:48;1.55;;;1.08;;
33268;SDS011;19640;50.944;5.260;2023-06-24T14:40:13;1.75;;;0.93;;
33268;SDS011;19640;50.944;5.260;2023-06-24T14:42:39;2.90;;;1.25;;
33268;SDS011;19640;50.944;5.260;2023-06-24T14:45:05;1.98;;;1.20;;
33268;SDS011;19640;50.944;5.260;2023-06-24T14:47:31;1.50;;;1.13;;
33268;SDS011;19640;50.944;5.260;2023-06-24T14:49:57;1.27;;;1.10;;
33268;SDS011;19640;50.944;5.260;2023-06-24T14:52:23;1.77;;;1.23;;
33268;SDS011;19640;50.944;5.260;2023-06-24T14:54:48;1.20;;;1.10;;
33268;SDS011;19640;50.944;5.260;2023-06-24T14:57:14;1.02;;;0.80;;